createdAt,value
2022-09-27T00:02:09.425Z,99776.30
2022-09-27T00:04:59.842Z,99772.51
2022-09-27T00:07:50.205Z,99771.91
2022-09-27T00:10:40.141Z,99765.61
2022-09-27T00:13:30.814Z,99765.45
2022-09-27T00:16:20.882Z,99770.64
2022-09-27T00:19:14.304Z,99770.17
2022-09-27T00:22:04.514Z,99763.06
2022-09-27T00:24:54.503Z,99761.19
2022-09-27T00:27:44.471Z,99756.61
2022-09-27T00:30:34.071Z,99752.57
2022-09-27T00:33:24.948Z,99751.95
2022-09-27T00:36:15.668Z,99751.38
2022-09-27T00:39:06.350Z,99752.02
2022-09-27T00:41:57.264Z,99754.55
2022-09-27T00:45:10.576Z,99755.73
2022-09-27T00:48:07.028Z,99758.48
2022-09-27T00:51:01.268Z,99761.98
2022-09-27T00:53:55.525Z,99756.55
2022-09-27T00:56:47.913Z,99756.22
2022-09-27T00:59:41.145Z,99760.28
2022-09-27T01:02:33.333Z,99769.99
2022-09-27T01:05:26.034Z,99769.59
2022-09-27T01:08:15.931Z,99769.03
2022-09-27T01:11:20.735Z,99765.48
2022-09-27T01:14:44.979Z,99761.16
2022-09-27T01:17:47.978Z,99752.77
2022-09-27T01:21:09.985Z,99754.06
2022-09-27T01:24:16.692Z,99752.60
2022-09-27T01:27:46.821Z,99736.05
2022-09-27T01:30:46.359Z,99731.41
2022-09-27T01:33:47.758Z,99730.35
2022-09-27T01:36:47.148Z,99724.97
2022-09-27T01:39:48.014Z,99721.83
2022-09-27T01:43:00.214Z,99718.70
2022-09-27T01:45:57.564Z,99718.39
2022-09-27T01:49:19.298Z,99723.45
2022-09-27T01:52:14.284Z,99722.80
2022-09-27T01:55:08.877Z,99715.76
2022-09-27T01:58:16.749Z,99707.52
2022-09-27T02:01:09.429Z,99704.39
2022-09-27T02:04:01.932Z,99702.20
2022-09-27T02:07:18.338Z,99699.95
2022-09-27T02:10:14.562Z,99693.27
2022-09-27T02:13:22.532Z,99683.31
2022-09-27T02:16:25.175Z,99679.48
2022-09-27T02:19:26.364Z,99681.08
2022-09-27T02:22:23.413Z,99672.31
2022-09-27T02:25:21.797Z,99664.98
2022-09-27T02:28:22.867Z,99661.71
2022-09-27T02:31:13.658Z,99661.98
2022-09-27T02:34:07.512Z,99662.23
2022-09-27T02:36:58.218Z,99657.84
2022-09-27T02:39:49.078Z,99657.55
2022-09-27T02:42:39.837Z,99658.80
2022-09-27T02:45:37.041Z,99659.39
2022-09-27T02:48:33.204Z,99649.11
2022-09-27T02:51:39.888Z,99646.02
2022-09-27T02:54:41.244Z,99648.71
2022-09-27T02:58:18.225Z,99646.14
2022-09-27T03:01:34.455Z,99648.66
2022-09-27T03:04:41.021Z,99652.23
2022-09-27T03:07:32.669Z,99651.58
2022-09-27T03:10:25.016Z,99652.39
2022-09-27T03:13:16.161Z,99651.48
2022-09-27T03:16:08.361Z,99650.33
2022-09-27T03:18:58.416Z,99644.50
2022-09-27T03:22:07.618Z,99640.75
2022-09-27T03:24:58.535Z,99642.43
2022-09-27T03:27:50.161Z,99639.28
2022-09-27T03:30:42.243Z,99636.06
2022-09-27T03:33:33.644Z,99632.20
2022-09-27T03:36:28.948Z,99626.16
2022-09-27T03:39:19.194Z,99621.07
2022-09-27T03:42:10.007Z,99613.04
2022-09-27T03:45:00.683Z,99604.94
2022-09-27T03:47:51.102Z,99595.80
2022-09-27T03:50:41.200Z,99591.70
2022-09-27T03:53:31.695Z,99589.50
2022-09-27T03:56:22.439Z,99588.72
2022-09-27T03:59:12.627Z,99589.65
2022-09-27T04:02:22.893Z,99594.78
2022-09-27T04:05:32.722Z,99592.06
2022-09-27T04:08:35.243Z,99592.91
2022-09-27T04:11:25.695Z,99590.42
2022-09-27T04:14:15.929Z,99585.05
2022-09-27T04:17:25.802Z,99585.21
2022-09-27T04:20:48.318Z,99580.80
2022-09-27T04:23:38.759Z,99576.06
2022-09-27T04:26:29.050Z,99577.92
2022-09-27T04:29:25.037Z,99578.00
2022-09-27T04:32:16.527Z,99574.65
2022-09-27T04:36:03.514Z,99569.14
2022-09-27T04:38:53.886Z,99570.64
2022-09-27T04:41:45.288Z,99565.02
2022-09-27T04:44:35.936Z,99557.15
2022-09-27T04:47:26.364Z,99554.49
2022-09-27T04:50:18.217Z,99561.80
2022-09-27T04:53:21.116Z,99570.52
2022-09-27T04:56:10.719Z,99567.33
2022-09-27T04:59:01.378Z,99566.96
2022-09-27T05:01:53.201Z,99559.00
2022-09-27T05:04:59.507Z,99556.80
2022-09-27T05:07:52.754Z,99557.61
2022-09-27T05:10:51.867Z,99557.86
2022-09-27T05:13:43.970Z,99558.73
2022-09-27T05:16:36.247Z,99554.37
2022-09-27T05:20:05.499Z,99554.42
2022-09-27T05:23:07.709Z,99547.45
2022-09-27T05:25:57.819Z,99541.36
2022-09-27T05:28:48.395Z,99544.06
2022-09-27T05:31:39.000Z,99547.79
2022-09-27T05:34:29.494Z,99545.03
2022-09-27T05:37:21.412Z,99542.33
2022-09-27T05:40:36.624Z,99542.52
2022-09-27T05:43:24.106Z,99554.99
2022-09-27T05:46:14.318Z,99561.36
2022-09-27T05:49:06.141Z,99562.19
2022-09-27T05:51:56.018Z,99562.89
2022-09-27T05:54:47.446Z,99558.02
2022-09-27T05:57:38.519Z,99561.11
2022-09-27T06:00:31.684Z,99558.36
2022-09-27T06:03:23.435Z,99563.09
2022-09-27T06:06:25.710Z,99558.07
2022-09-27T06:09:18.920Z,99558.60
2022-09-27T06:12:12.044Z,99556.58
2022-09-27T06:15:02.020Z,99554.29
2022-09-27T06:18:06.392Z,99551.95
2022-09-27T06:20:59.957Z,99552.69
2022-09-27T06:23:54.187Z,99552.39
2022-09-27T06:26:50.738Z,99549.91
2022-09-27T06:29:59.254Z,99544.05
2022-09-27T06:33:12.279Z,99541.16
2022-09-27T06:36:07.103Z,99543.94
2022-09-27T06:39:02.368Z,99541.03
2022-09-27T06:42:04.139Z,99537.54
2022-09-27T06:45:14.900Z,99541.73
2022-09-27T06:48:32.525Z,99540.84
2022-09-27T06:51:34.537Z,99541.05
2022-09-27T06:54:24.395Z,99534.14
2022-09-27T06:57:35.322Z,99541.15
2022-09-27T07:00:27.891Z,99537.25
2022-09-27T07:03:41.591Z,99533.29
2022-09-27T07:06:41.264Z,99530.12
2022-09-27T07:09:51.664Z,99531.60
2022-09-27T07:12:42.671Z,99534.21
2022-09-27T07:15:36.462Z,99532.25
2022-09-27T07:18:29.132Z,99533.75
2022-09-27T07:21:19.349Z,99533.52
2022-09-27T07:24:09.805Z,99533.80
2022-09-27T07:26:59.714Z,99533.73
2022-09-27T07:29:50.478Z,99532.06
2022-09-27T07:32:41.409Z,99531.14
2022-09-27T07:35:33.793Z,99529.38
2022-09-27T07:38:23.776Z,99527.20
2022-09-27T07:41:15.891Z,99522.27
2022-09-27T07:44:08.271Z,99518.81
2022-09-27T07:47:07.732Z,99526.04
2022-09-27T07:50:17.080Z,99528.39
2022-09-27T07:53:20.067Z,99532.52
2022-09-27T07:56:19.591Z,99532.27
2022-09-27T07:59:10.008Z,99532.92
2022-09-27T08:02:00.317Z,99533.50
2022-09-27T08:04:50.794Z,99530.85
2022-09-27T08:07:42.488Z,99532.65
2022-09-27T08:10:34.222Z,99534.89
2022-09-27T08:13:24.445Z,99531.02
2022-09-27T08:16:16.571Z,99533.69
2022-09-27T08:19:27.497Z,99536.27
2022-09-27T08:22:27.592Z,99538.20
2022-09-27T08:25:25.811Z,99541.48
2022-09-27T08:28:35.226Z,99543.00
2022-09-27T08:31:37.667Z,99545.09
2022-09-27T08:34:28.533Z,99542.40
2022-09-27T08:37:19.550Z,99546.31
2022-09-27T08:40:17.974Z,99545.42
2022-09-27T08:43:21.440Z,99549.48
2022-09-27T08:46:27.550Z,99552.41
2022-09-27T08:49:25.596Z,99548.23
2022-09-27T08:52:22.070Z,99547.68
2022-09-27T08:55:23.396Z,99545.75
2022-09-27T08:58:21.336Z,99541.45
2022-09-27T09:01:16.733Z,99542.93
2022-09-27T09:04:23.749Z,99544.13
2022-09-27T09:07:32.539Z,99544.18
2022-09-27T09:10:55.698Z,99545.10
2022-09-27T09:14:23.367Z,99555.33
2022-09-27T09:17:23.965Z,99558.79
2022-09-27T09:21:01.059Z,99555.84
2022-09-27T09:24:13.712Z,99558.63
2022-09-27T09:27:13.931Z,99558.27
2022-09-27T09:30:25.170Z,99562.07
2022-09-27T09:33:26.924Z,99561.26
2022-09-27T09:36:25.671Z,99556.92
2022-09-27T09:39:19.746Z,99555.77
2022-09-27T09:42:14.827Z,99557.47
2022-09-27T09:45:09.767Z,99558.35
2022-09-27T09:48:06.524Z,99559.59
2022-09-27T09:51:00.440Z,99563.64
2022-09-27T09:53:54.243Z,99565.33
2022-09-27T09:56:59.500Z,99563.40
2022-09-27T09:59:54.460Z,99562.02
2022-09-27T10:02:46.800Z,99559.51
2022-09-27T10:05:43.526Z,99559.36
2022-09-27T10:08:33.788Z,99559.66
2022-09-27T10:11:41.383Z,99563.02
2022-09-27T10:14:41.785Z,99563.01
2022-09-27T10:17:39.962Z,99566.11
2022-09-27T10:20:36.847Z,99569.97
2022-09-27T10:23:28.773Z,99563.98
2022-09-27T10:26:28.152Z,99566.47
2022-09-27T10:29:25.412Z,99567.78
2022-09-27T10:32:27.376Z,99567.10
2022-09-27T10:35:40.593Z,99572.34
2022-09-27T10:38:34.001Z,99575.11
2022-09-27T10:41:37.812Z,99584.01
2022-09-27T10:44:33.102Z,99583.80
2022-09-27T10:47:37.727Z,99588.27
2022-09-27T10:51:02.236Z,99587.08
2022-09-27T10:54:24.027Z,99589.02
2022-09-27T10:57:23.216Z,99589.26
2022-09-27T11:00:32.567Z,99587.98
2022-09-27T11:03:25.341Z,99585.47
2022-09-27T11:06:32.241Z,99591.20
2022-09-27T11:09:27.079Z,99596.98
2022-09-27T11:12:22.872Z,99596.23
2022-09-27T11:15:24.575Z,99599.36
2022-09-27T11:18:30.396Z,99595.15
2022-09-27T11:21:31.601Z,99593.81
2022-09-27T11:24:33.208Z,99595.39
2022-09-27T11:27:37.027Z,99594.48
2022-09-27T11:30:38.600Z,99593.20
2022-09-27T11:34:36.513Z,99592.83
2022-09-27T11:37:40.049Z,99589.17
2022-09-27T11:40:44.851Z,99582.63
2022-09-27T11:43:52.118Z,99583.20
2022-09-27T11:46:45.715Z,99581.92
2022-09-27T11:50:07.466Z,99584.70
2022-09-27T11:53:15.712Z,99586.44
2022-09-27T11:56:13.927Z,99591.79
2022-09-27T11:59:24.525Z,99592.66
2022-09-27T12:02:35.907Z,99590.17
2022-09-27T12:05:32.998Z,99588.69
2022-09-27T12:08:40.246Z,99586.68
2022-09-27T12:11:37.306Z,99592.17
2022-09-27T12:14:36.317Z,99590.98
2022-09-27T12:17:31.195Z,99591.99
2022-09-27T12:20:24.481Z,99586.52
2022-09-27T12:23:23.696Z,99583.80
2022-09-27T12:26:32.706Z,99589.20
2022-09-27T12:29:27.975Z,99589.83
2022-09-27T12:32:23.541Z,99585.44
2022-09-27T12:35:23.508Z,99586.13
2022-09-27T12:38:18.818Z,99589.80
2022-09-27T12:41:12.873Z,99589.92
2022-09-27T12:44:14.103Z,99590.30
2022-09-27T12:47:26.124Z,99587.23
2022-09-27T12:50:30.642Z,99582.44
2022-09-27T12:53:25.437Z,99583.13
2022-09-27T12:56:31.891Z,99580.70
2022-09-27T12:59:35.905Z,99581.80
2022-09-27T13:03:11.174Z,99586.88
2022-09-27T13:06:34.265Z,99591.14
2022-09-27T13:09:45.398Z,99599.38
2022-09-27T13:12:38.547Z,99598.16
2022-09-27T13:15:33.352Z,99598.30
2022-09-27T13:18:51.495Z,99596.05
2022-09-27T13:21:59.922Z,99601.55
2022-09-27T13:25:40.649Z,99607.03
2022-09-27T13:29:02.296Z,99601.92
2022-09-27T13:32:28.862Z,99603.09
2022-09-27T13:35:33.690Z,99607.77
2022-09-27T13:38:33.245Z,99608.67
2022-09-27T13:41:23.932Z,99610.71
2022-09-27T13:44:27.611Z,99615.93
2022-09-27T13:47:33.035Z,99619.77
2022-09-27T13:50:29.357Z,99619.13
2022-09-27T13:53:30.018Z,99615.17
2022-09-27T13:56:53.310Z,99616.69
2022-09-27T13:59:52.503Z,99613.00
2022-09-27T14:03:09.267Z,99610.89
2022-09-27T14:06:07.889Z,99614.73
2022-09-27T14:09:03.997Z,99615.21
2022-09-27T14:11:58.255Z,99617.68
2022-09-27T14:14:50.846Z,99620.60
2022-09-27T14:17:46.049Z,99623.41
2022-09-27T14:20:41.879Z,99622.91
2022-09-27T14:23:40.916Z,99625.30
2022-09-27T14:26:31.195Z,99627.45
2022-09-27T14:29:24.185Z,99624.25
2022-09-27T14:32:16.614Z,99627.27
2022-09-27T14:35:33.888Z,99630.11
2022-09-27T14:38:38.192Z,99626.80
2022-09-27T14:41:40.993Z,99628.89
2022-09-27T14:44:33.571Z,99632.86
2022-09-27T14:47:25.480Z,99635.98
2022-09-27T14:50:24.631Z,99636.75
2022-09-27T14:53:26.007Z,99638.98
2022-09-27T14:56:19.993Z,99635.25
2022-09-27T14:59:18.502Z,99638.10
2022-09-27T15:02:20.395Z,99641.05
2022-09-27T15:05:18.053Z,99639.16
2022-09-27T15:08:08.575Z,99639.60
2022-09-27T15:10:58.967Z,99644.50
2022-09-27T15:13:52.772Z,99645.20
2022-09-27T15:16:43.230Z,99647.55
2022-09-27T15:19:33.650Z,99643.92
2022-09-27T15:22:35.901Z,99645.04
2022-09-27T15:25:32.524Z,99643.01
2022-09-27T15:28:22.578Z,99647.91
2022-09-27T15:31:13.601Z,99651.64
2022-09-27T15:34:05.406Z,99654.45
2022-09-27T15:37:00.258Z,99655.91
2022-09-27T15:39:50.015Z,99655.56
2022-09-27T15:42:58.786Z,99651.77
2022-09-27T15:45:54.474Z,99656.84
2022-09-27T15:48:44.812Z,99657.96
2022-09-27T15:51:44.993Z,99662.64
2022-09-27T15:54:36.478Z,99659.27
2022-09-27T15:57:29.104Z,99655.88
2022-09-27T16:00:23.094Z,99659.77
2022-09-27T16:03:15.250Z,99655.42
2022-09-27T16:06:08.303Z,99654.48
2022-09-27T16:08:59.713Z,99656.37
2022-09-27T16:11:52.035Z,99658.77
2022-09-27T16:14:43.975Z,99659.80
2022-09-27T16:17:38.588Z,99665.00
2022-09-27T16:20:38.443Z,99669.80
2022-09-27T16:23:30.276Z,99671.09
2022-09-27T16:26:26.205Z,99671.88
2022-09-27T16:29:17.285Z,99669.89
2022-09-27T16:32:08.635Z,99676.52
2022-09-27T16:34:59.673Z,99683.90
2022-09-27T16:37:49.781Z,99686.64
2022-09-27T16:40:41.218Z,99693.42
2022-09-27T16:43:31.853Z,99695.00
2022-09-27T16:46:22.262Z,99695.09
2022-09-27T16:49:32.206Z,99698.06
2022-09-27T16:52:22.131Z,99698.15
2022-09-27T16:55:12.802Z,99696.61
2022-09-27T16:58:05.491Z,99699.26
2022-09-27T17:00:58.581Z,99697.91
2022-09-27T17:03:56.771Z,99696.48
2022-09-27T17:06:47.674Z,99701.97
2022-09-27T17:09:37.792Z,99700.47
2022-09-27T17:12:28.158Z,99696.52
2022-09-27T17:15:19.074Z,99701.06
2022-09-27T17:18:08.909Z,99705.23
2022-09-27T17:21:04.924Z,99700.44
2022-09-27T17:23:55.194Z,99699.09
2022-09-27T17:26:45.552Z,99699.23
2022-09-27T17:29:35.736Z,99700.35
2022-09-27T17:32:25.664Z,99702.08
2022-09-27T17:35:15.908Z,99703.58
2022-09-27T17:38:05.960Z,99708.16
2022-09-27T17:41:04.605Z,99707.29
2022-09-27T17:43:57.761Z,99710.45
2022-09-27T17:47:08.598Z,99723.25
2022-09-27T17:50:16.955Z,99728.92
2022-09-27T17:53:06.776Z,99733.79
2022-09-27T17:56:03.774Z,99736.89
2022-09-27T17:58:57.061Z,99735.05
2022-09-27T18:01:50.582Z,99736.23
2022-09-27T18:04:40.681Z,99740.79
2022-09-27T18:07:32.406Z,99749.23
2022-09-27T18:10:25.165Z,99752.63
2022-09-27T18:13:16.383Z,99749.84
2022-09-27T18:16:09.988Z,99747.00
2022-09-27T18:19:01.027Z,99743.57
2022-09-27T18:21:53.956Z,99748.05
2022-09-27T18:24:49.874Z,99749.70
2022-09-27T18:27:46.343Z,99746.41
2022-09-27T18:30:41.063Z,99748.69
2022-09-27T18:33:31.339Z,99751.16
2022-09-27T18:36:25.282Z,99756.70
2022-09-27T18:39:24.301Z,99766.23
2022-09-27T18:42:16.739Z,99766.31
2022-09-27T18:45:12.648Z,99772.37
2022-09-27T18:48:07.919Z,99773.52
2022-09-27T18:51:02.193Z,99777.17
2022-09-27T18:54:05.017Z,99782.33
2022-09-27T18:57:00.667Z,99781.35
2022-09-27T18:59:50.691Z,99780.27
2022-09-27T19:02:42.601Z,99781.10
2022-09-27T19:05:37.089Z,99784.71
2022-09-27T19:08:29.740Z,99788.78
2022-09-27T19:11:24.730Z,99798.62
2022-09-27T19:14:20.880Z,99797.54
2022-09-27T19:17:17.942Z,99797.70
2022-09-27T19:20:15.279Z,99796.28
2022-09-27T19:23:10.894Z,99796.17
2022-09-27T19:26:03.468Z,99801.25
2022-09-27T19:28:58.286Z,99807.88
2022-09-27T19:31:52.388Z,99802.27
2022-09-27T19:34:47.996Z,99799.98
2022-09-27T19:37:43.596Z,99804.05
2022-09-27T19:40:36.163Z,99808.93
2022-09-27T19:43:30.767Z,99808.81
2022-09-27T19:46:27.079Z,99801.14
2022-09-27T19:49:19.002Z,99800.61
2022-09-27T19:52:14.155Z,99808.48
2022-09-27T19:55:06.113Z,99813.48
2022-09-27T19:57:58.353Z,99815.13
2022-09-27T20:00:59.686Z,99816.65
2022-09-27T20:03:55.410Z,99820.08
2022-09-27T20:06:46.646Z,99823.92
2022-09-27T20:09:37.871Z,99827.46
2022-09-27T20:12:33.772Z,99826.52
2022-09-27T20:15:34.086Z,99823.09
2022-09-27T20:18:27.024Z,99825.39
2022-09-27T20:21:19.178Z,99827.77
2022-09-27T20:24:12.036Z,99830.84
2022-09-27T20:27:01.809Z,99833.56
2022-09-27T20:29:53.383Z,99835.86
2022-09-27T20:33:05.336Z,99837.20
2022-09-27T20:35:58.679Z,99839.37
2022-09-27T20:38:58.181Z,99840.34
2022-09-27T20:41:54.190Z,99845.41
2022-09-27T20:44:54.352Z,99847.70
2022-09-27T20:47:44.995Z,99852.08
2022-09-27T20:50:36.295Z,99853.25
2022-09-27T20:53:28.192Z,99853.23
2022-09-27T20:56:22.968Z,99855.50
2022-09-27T20:59:18.917Z,99858.52
2022-09-27T21:02:09.509Z,99856.27
2022-09-27T21:04:59.818Z,99861.27
2022-09-27T21:07:53.869Z,99863.17
2022-09-27T21:10:48.049Z,99865.05
2022-09-27T21:13:41.500Z,99864.16
2022-09-27T21:16:36.634Z,99868.21
2022-09-27T21:19:29.322Z,99867.52
2022-09-27T21:22:20.547Z,99868.41
2022-09-27T21:25:11.796Z,99871.44
2022-09-27T21:28:04.368Z,99873.48
2022-09-27T21:30:54.918Z,99876.17
2022-09-27T21:33:48.143Z,99875.03
2022-09-27T21:36:40.037Z,99875.11
2022-09-27T21:39:30.625Z,99879.44
2022-09-27T21:42:20.979Z,99881.91
2022-09-27T21:45:12.824Z,99884.77
2022-09-27T21:48:03.173Z,99886.22
2022-09-27T21:50:53.132Z,99882.13
2022-09-27T21:53:46.016Z,99883.48
2022-09-27T21:56:38.299Z,99881.83
2022-09-27T21:59:27.937Z,99884.73
2022-09-27T22:02:19.311Z,99886.90
2022-09-27T22:05:10.541Z,99885.84
2022-09-27T22:08:00.405Z,99885.00
2022-09-27T22:10:52.632Z,99885.94
2022-09-27T22:13:43.010Z,99883.70
2022-09-27T22:16:32.868Z,99889.09
2022-09-27T22:19:22.323Z,99882.64
2022-09-27T22:22:12.190Z,99880.84
2022-09-27T22:25:02.532Z,99879.26
2022-09-27T22:27:52.245Z,99878.24
2022-09-27T22:30:41.892Z,99877.27
2022-09-27T22:33:32.226Z,99874.02
2022-09-27T22:36:23.144Z,99874.76
2022-09-27T22:39:13.849Z,99876.23
2022-09-27T22:42:04.993Z,99876.77
2022-09-27T22:44:54.916Z,99881.42
2022-09-27T22:47:45.814Z,99879.71
2022-09-27T22:50:36.242Z,99880.81
2022-09-27T22:53:26.695Z,99882.85
2022-09-27T22:56:18.493Z,99882.52
2022-09-27T22:59:08.527Z,99876.10
2022-09-27T23:01:59.040Z,99866.48
2022-09-27T23:04:50.032Z,99859.51
2022-09-27T23:07:40.567Z,99857.88
2022-09-27T23:10:30.953Z,99855.96
2022-09-27T23:13:21.742Z,99856.81
2022-09-27T23:16:14.200Z,99850.61
2022-09-27T23:19:05.463Z,99850.36
2022-09-27T23:21:55.565Z,99853.06
2022-09-27T23:24:45.386Z,99854.21
2022-09-27T23:27:45.337Z,99850.30
2022-09-27T23:30:35.245Z,99850.65
2022-09-27T23:33:28.301Z,99851.88
2022-09-27T23:36:20.754Z,99859.92
2022-09-27T23:39:11.444Z,99861.44
2022-09-27T23:42:01.645Z,99859.18
2022-09-27T23:44:53.551Z,99855.95
2022-09-27T23:47:44.280Z,99854.36
2022-09-27T23:50:34.572Z,99855.27
2022-09-27T23:53:25.854Z,99854.41
2022-09-27T23:56:17.827Z,99854.98
2022-09-27T23:59:08.933Z,99859.14
